Time;durP1;ratioP1;P1;durP2;ratioP2;P2;SDS_P1;SDS_P2;PMS_P1;PMS_P2;Temp;Humidity;BMP_temperature;BMP_pressure;BME280_temperature;BME280_humidity;BME280_pressure;Samples;Min_cycle;Max_cycle;Signal;HPM_P1;HPM_P2
2022/11/15 00:01:29;;;;;;;10.77;6.45;;;10.60;99.90;;;;;;4955555;29;20041;-48
2022/11/15 00:03:54;;;;;;;7.43;5.93;;;10.50;99.90;;;;;;4954093;28;20412;-47
2022/11/15 00:06:20;;;;;;;10.30;6.47;;;10.50;99.90;;;;;;4955081;29;20023;-47
2022/11/15 00:08:45;;;;;;;7.45;6.00;;;10.50;99.90;;;;;;4954391;28;20114;-48
2022/11/15 00:11:12;;;;;;;6.72;5.97;;;10.60;99.90;;;;;;4953932;28;20058;-54
2022/11/15 00:13:37;;;;;;;11.35;6.65;;;10.50;99.90;;;;;;4953532;29;20051;-50
2022/11/15 00:16:03;;;;;;;11.15;6.20;;;10.50;99.90;;;;;;4954459;28;20463;-52
2022/11/15 00:18:30;;;;;;;8.38;5.95;;;10.60;99.90;;;;;;4953064;29;20077;-52
2022/11/15 00:20:56;;;;;;;7.50;5.90;;;10.60;99.90;;;;;;4954467;28;20404;-49
2022/11/15 00:23:22;;;;;;;8.15;5.53;;;10.60;99.90;;;;;;4953664;28;20042;-51
2022/11/15 00:25:54;;;;;;;9.10;5.55;;;10.60;99.90;;;;;;4954438;28;20102;-48
2022/11/15 00:28:20;;;;;;;9.52;5.70;;;10.60;99.90;;;;;;4954296;28;20019;-50
2022/11/15 00:30:45;;;;;;;11.07;6.40;;;10.60;99.90;;;;;;4952805;28;20471;-47
2022/11/15 00:33:11;;;;;;;10.65;6.25;;;10.70;99.90;;;;;;4953708;28;20062;-47
2022/11/15 00:35:36;;;;;;;10.32;6.75;;;10.60;99.90;;;;;;4954133;28;20070;-48
2022/11/15 00:38:02;;;;;;;9.32;6.72;;;10.70;99.90;;;;;;4954097;29;20035;-50
2022/11/15 00:40:28;;;;;;;11.88;7.82;;;10.70;99.90;;;;;;4954125;29;20028;-47
2022/11/15 00:42:53;;;;;;;12.32;7.38;;;10.70;99.90;;;;;;4953504;29;20506;-46
2022/11/15 00:45:19;;;;;;;7.55;6.75;;;10.60;99.90;;;;;;4953996;28;20075;-51
2022/11/15 00:47:46;;;;;;;9.40;6.82;;;10.60;99.90;;;;;;4954006;29;20030;-50
2022/11/15 00:50:12;;;;;;;12.65;7.32;;;10.70;99.90;;;;;;4953666;28;20031;-48
2022/11/15 00:52:37;;;;;;;9.10;7.20;;;10.70;99.90;;;;;;4953383;29;20023;-49
2022/11/15 00:55:03;;;;;;;12.57;8.43;;;10.60;99.90;;;;;;4954159;28;20034;-48
2022/11/15 00:57:29;;;;;;;7.90;7.10;;;10.60;99.90;;;;;;4953785;28;20027;-50
2022/11/15 00:59:54;;;;;;;12.80;7.10;;;10.60;99.90;;;;;;4953500;28;20063;-44
2022/11/15 01:02:20;;;;;;;11.45;6.93;;;10.50;99.90;;;;;;4952976;28;20045;-47
2022/11/15 01:04:45;;;;;;;12.85;7.53;;;10.50;99.90;;;;;;4953671;29;20499;-46
2022/11/15 01:07:11;;;;;;;8.13;6.70;;;10.40;99.90;;;;;;4953732;29;20501;-47
2022/11/15 01:09:36;;;;;;;9.73;6.85;;;10.40;99.90;;;;;;4953738;28;20448;-47
2022/11/15 01:12:02;;;;;;;9.23;6.80;;;10.40;99.90;;;;;;4953147;29;20031;-47
2022/11/15 01:14:28;;;;;;;10.52;7.82;;;10.40;99.90;;;;;;4952681;29;20035;-51
2022/11/15 01:16:53;;;;;;;12.50;7.25;;;10.40;99.90;;;;;;4953906;28;20035;-47
2022/11/15 01:19:19;;;;;;;10.70;7.28;;;10.40;99.90;;;;;;4952811;28;20060;-46
2022/11/15 01:21:44;;;;;;;10.27;6.57;;;10.40;99.90;;;;;;4953406;29;20027;-48
2022/11/15 01:24:13;;;;;;;9.43;6.85;;;10.40;99.90;;;;;;4952893;29;20031;-46
2022/11/15 01:26:38;;;;;;;9.57;6.75;;;10.30;99.90;;;;;;4953417;29;20019;-47
2022/11/15 01:29:04;;;;;;;9.13;6.55;;;10.40;99.90;;;;;;4953459;29;20029;-46
2022/11/15 01:31:29;;;;;;;11.15;6.32;;;10.30;99.90;;;;;;4953709;28;20027;-47
2022/11/15 01:33:55;;;;;;;10.70;7.38;;;10.30;99.90;;;;;;4952848;29;20023;-48
2022/11/15 01:36:22;;;;;;;9.73;7.03;;;10.30;99.90;;;;;;4953420;29;20024;-49
2022/11/15 01:38:54;;;;;;;8.77;7.40;;;10.30;99.90;;;;;;4953623;29;20027;-48
2022/11/15 01:41:22;;;;;;;9.00;7.45;;;10.30;99.90;;;;;;4953435;28;20136;-51
2022/11/15 01:43:54;;;;;;;9.80;6.32;;;10.30;99.90;;;;;;4951156;29;20032;-44
2022/11/15 01:46:37;;;;;;;11.38;6.63;;;10.30;99.90;;;;;;4953399;29;20034;-50
2022/11/15 01:49:11;;;;;;;594.45;430.58;;;10.30;99.90;;;;;;4953280;28;20024;-46
2022/11/15 01:51:37;;;;;;;157.50;108.43;;;10.30;99.90;;;;;;4952009;29;20027;-46
2022/11/15 01:54:09;;;;;;;113.03;69.15;;;10.30;99.90;;;;;;4952566;28;20546;-50
2022/11/15 01:56:43;;;;;;;46.13;28.20;;;10.30;99.90;;;;;;4953308;29;20028;-46
2022/11/15 01:59:09;;;;;;;18.83;10.32;;;10.30;99.90;;;;;;4953083;29;20042;-48
2022/11/15 02:01:35;;;;;;;11.40;8.38;;;10.30;99.90;;;;;;4954227;28;20020;-42
2022/11/15 02:04:22;;;;;;;13.57;8.93;;;10.30;99.90;;;;;;4956391;29;20356;-52
2022/11/15 02:06:48;;;;;;;16.67;8.40;;;10.40;99.90;;;;;;4956827;29;20027;-47
2022/11/15 02:09:14;;;;;;;15.18;8.10;;;10.40;99.90;;;;;;4956968;29;20086;-48
2022/11/15 02:11:41;;;;;;;10.23;8.00;;;10.40;99.90;;;;;;4945965;29;20147;-46
2022/11/15 02:14:08;;;;;;;11.25;7.63;;;10.40;99.90;;;;;;4947128;29;20476;-48
2022/11/15 02:16:34;;;;;;;11.95;7.28;;;10.40;99.90;;;;;;4945370;29;20090;-47
2022/11/15 02:19:25;;;;;;;13.63;7.32;;;10.40;99.90;;;;;;4961897;28;20027;-48
2022/11/15 02:22:10;;;;;;;10.02;6.90;;;10.40;99.90;;;;;;4944881;29;20052;-46
2022/11/15 02:24:54;;;;;;;13.77;7.35;;;10.40;99.90;;;;;;4962664;28;20027;-49
2022/11/15 02:27:41;;;;;;;11.60;7.40;;;10.40;99.90;;;;;;4947863;29;20072;-52
2022/11/15 02:30:20;;;;;;;11.40;8.02;;;10.40;99.90;;;;;;4944346;29;20408;-51
2022/11/15 02:32:54;;;;;;;9.73;7.32;;;10.40;99.90;;;;;;4946317;29;20206;-47
2022/11/15 02:35:47;;;;;;;10.63;6.80;;;10.30;99.90;;;;;;4948296;29;20221;-48
2022/11/15 02:38:38;;;;;;;8.18;6.05;;;10.30;99.90;;;;;;4941137;29;20040;-48
2022/11/15 02:41:15;;;;;;;9.57;6.72;;;10.20;99.90;;;;;;4936814;29;20043;-45
2022/11/15 02:43:57;;;;;;;9.57;6.97;;;10.10;99.90;;;;;;4936296;29;20087;-49
2022/11/15 02:49:32;;;;;;;10.70;8.18;;;9.90;99.90;;;;;;4937175;29;20535;-48
2022/11/15 02:51:58;;;;;;;12.77;7.97;;;10.00;99.90;;;;;;4936112;29;20095;-46
2022/11/15 02:54:28;;;;;;;12.10;8.43;;;10.00;99.90;;;;;;4936771;29;20027;-50
2022/11/15 02:56:58;;;;;;;11.52;8.35;;;10.00;99.90;;;;;;4936732;29;20111;-46
2022/11/15 02:59:50;;;;;;;12.48;8.57;;;10.10;99.90;;;;;;4936528;29;20040;-45
2022/11/15 03:02:37;;;;;;;8.65;7.43;;;10.10;99.90;;;;;;4936332;29;20404;-48
2022/11/15 03:05:25;;;;;;;15.43;9.02;;;10.20;99.90;;;;;;4936595;29;20110;-47
2022/11/15 03:08:10;;;;;;;17.90;8.50;;;10.20;99.90;;;;;;4936473;29;20032;-50
2022/11/15 03:10:45;;;;;;;11.73;7.37;;;10.20;99.90;;;;;;4936921;29;20031;-50
2022/11/15 03:13:38;;;;;;;10.88;7.47;;;10.20;99.90;;;;;;4935447;29;20102;-48
2022/11/15 03:16:08;;;;;;;10.50;7.70;;;10.20;99.90;;;;;;4936534;29;20031;-47
2022/11/15 03:18:41;;;;;;;9.27;8.32;;;10.20;99.90;;;;;;4935246;29;20452;-48
2022/11/15 03:21:09;;;;;;;15.32;7.85;;;10.20;99.90;;;;;;4936157;29;20122;-49
2022/11/15 03:23:36;;;;;;;21.05;8.57;;;10.20;99.90;;;;;;4935556;29;20020;-48
2022/11/15 03:26:07;;;;;;;12.32;8.13;;;10.30;99.90;;;;;;4967103;28;20024;-49
2022/11/15 03:28:43;;;;;;;11.25;8.00;;;10.40;99.90;;;;;;4936139;29;20032;-49
2022/11/15 03:33:59;;;;;;;9.38;7.78;;;10.40;99.90;;;;;;4935473;29;20086;-50
2022/11/15 03:36:26;;;;;;;14.30;8.10;;;10.30;99.90;;;;;;4935979;29;20118;-53
2022/11/15 03:39:00;;;;;;;10.57;7.47;;;10.30;99.90;;;;;;4935827;29;20032;-51
2022/11/15 03:41:37;;;;;;;14.35;8.07;;;10.30;99.90;;;;;;4935980;29;20024;-48
2022/11/15 03:44:41;;;;;;;13.98;7.65;;;10.30;99.90;;;;;;4935209;29;20027;-46
2022/11/15 03:47:16;;;;;;;15.02;9.43;;;10.30;99.90;;;;;;4935771;28;20039;-51
2022/11/15 03:49:46;;;;;;;11.60;8.10;;;10.40;99.90;;;;;;4935878;28;20035;-53
2022/11/15 03:52:12;;;;;;;11.13;7.88;;;10.40;99.90;;;;;;4935091;29;20519;-51
2022/11/15 03:54:48;;;;;;;15.07;8.40;;;10.40;99.90;;;;;;4935924;29;20027;-46
2022/11/15 03:57:14;;;;;;;10.98;8.02;;;10.50;99.90;;;;;;4935910;29;20064;-49
2022/11/15 03:59:39;;;;;;;10.50;7.75;;;10.50;99.90;;;;;;4935454;29;20555;-49
2022/11/15 04:02:05;;;;;;;11.15;7.60;;;10.50;99.90;;;;;;4949716;29;20381;-46
2022/11/15 04:04:30;;;;;;;10.82;7.47;;;10.50;99.90;;;;;;4966295;28;20558;-45
2022/11/15 04:06:56;;;;;;;11.55;8.02;;;10.50;99.90;;;;;;4935521;29;20028;-45
2022/11/15 04:09:21;;;;;;;10.48;8.55;;;10.50;99.90;;;;;;4935400;29;20039;-51
2022/11/15 04:11:47;;;;;;;11.05;8.20;;;10.60;99.90;;;;;;4949865;29;20035;-43
2022/11/15 04:14:12;;;;;;;9.48;7.95;;;10.50;99.90;;;;;;4934990;29;20040;-50
2022/11/15 04:16:38;;;;;;;13.52;7.55;;;10.60;99.90;;;;;;4935357;29;20489;-47
2022/11/15 04:24:31;;;;;;;9.77;7.57;;;10.60;99.90;;;;;;4934828;29;20179;-48
2022/11/15 04:26:57;;;;;;;12.90;7.43;;;10.50;99.90;;;;;;4935096;29;20103;-46
2022/11/15 04:29:35;;;;;;;12.13;7.40;;;10.60;99.90;;;;;;4965891;28;20380;-51
2022/11/15 04:32:02;;;;;;;11.05;7.22;;;10.60;99.90;;;;;;4934542;29;20071;-50
2022/11/15 04:34:27;;;;;;;9.00;6.70;;;10.60;99.90;;;;;;4949124;28;20086;-51
2022/11/15 04:37:11;;;;;;;9.52;7.07;;;10.50;99.90;;;;;;4933320;29;20040;-49
2022/11/15 04:39:37;;;;;;;10.98;7.35;;;10.50;99.90;;;;;;4950004;28;20032;-49
2022/11/15 04:42:03;;;;;;;11.65;6.93;;;10.60;99.90;;;;;;4933923;29;20031;-46
2022/11/15 04:44:28;;;;;;;10.98;7.70;;;10.60;99.90;;;;;;4934972;29;20024;-49
2022/11/15 04:46:54;;;;;;;79.03;48.67;;;10.60;99.90;;;;;;4934807;28;20027;-46
2022/11/15 04:49:19;;;;;;;10.73;9.30;;;10.60;99.90;;;;;;4934755;29;20147;-47
2022/11/15 04:51:45;;;;;;;9.18;7.30;;;10.60;99.90;;;;;;4965724;28;20539;-45
2022/11/15 04:54:11;;;;;;;9.93;7.45;;;10.50;99.90;;;;;;4934346;28;20028;-51
2022/11/15 04:56:36;;;;;;;12.68;7.18;;;10.50;99.90;;;;;;4934657;29;20038;-47
2022/11/15 04:59:01;;;;;;;10.35;7.43;;;10.50;99.90;;;;;;4934504;29;20035;-46
2022/11/15 05:01:27;;;;;;;9.32;7.90;;;10.40;99.90;;;;;;4987468;23;20070;-51
2022/11/15 05:06:37;;;;;;;9.15;7.40;;;10.40;99.90;;;;;;4973020;28;20030;-44
2022/11/15 05:09:02;;;;;;;12.60;7.43;;;10.30;99.90;;;;;;4972995;28;20034;-45
2022/11/15 05:11:28;;;;;;;11.18;7.80;;;10.30;99.90;;;;;;4972864;28;20033;-47
2022/11/15 05:13:53;;;;;;;10.45;7.85;;;10.30;99.90;;;;;;4972195;28;20058;-46
2022/11/15 05:16:19;;;;;;;7.90;6.22;;;10.30;99.90;;;;;;4972726;28;20089;-46
2022/11/15 05:18:45;;;;;;;11.18;7.10;;;10.30;99.90;;;;;;4971928;28;20414;-47
2022/11/15 05:21:13;;;;;;;11.23;7.18;;;10.40;99.90;;;;;;4972574;28;20557;-46
2022/11/15 05:23:39;;;;;;;14.70;7.80;;;10.50;99.90;;;;;;4972315;28;20042;-45
2022/11/15 05:26:06;;;;;;;9.55;7.55;;;10.60;99.90;;;;;;4972675;28;20031;-48
2022/11/15 05:28:32;;;;;;;9.27;6.65;;;10.70;99.90;;;;;;4972687;28;20030;-47
2022/11/15 05:31:15;;;;;;;11.82;7.65;;;10.70;99.90;;;;;;4972544;28;20034;-47
2022/11/15 05:33:42;;;;;;;9.32;6.47;;;10.80;99.90;;;;;;4972093;28;20061;-49
2022/11/15 05:36:32;;;;;;;10.77;6.95;;;10.80;99.90;;;;;;4974470;28;20042;-46
2022/11/15 05:38:58;;;;;;;9.65;6.50;;;10.70;99.90;;;;;;4976581;28;20031;-46
2022/11/15 05:41:46;;;;;;;12.50;7.03;;;10.60;99.90;;;;;;4976620;28;20078;-47
2022/11/15 05:44:15;;;;;;;8.63;6.65;;;10.60;99.90;;;;;;4976948;28;20110;-45
2022/11/15 05:46:42;;;;;;;12.05;8.20;;;10.60;99.90;;;;;;4976513;28;20110;-48
2022/11/15 05:49:12;;;;;;;15.90;7.43;;;10.60;99.90;;;;;;4976687;28;20023;-43
2022/11/15 05:51:39;;;;;;;15.38;7.88;;;10.60;99.90;;;;;;4976019;28;20073;-49
2022/11/15 05:54:05;;;;;;;10.07;6.95;;;10.60;99.90;;;;;;4990649;28;20121;-44
2022/11/15 05:56:31;;;;;;;12.23;8.55;;;10.50;99.90;;;;;;4976373;28;20554;-47
2022/11/15 05:58:58;;;;;;;12.75;7.15;;;10.60;99.90;;;;;;4975997;28;20027;-48
2022/11/15 06:01:26;;;;;;;11.00;6.97;;;10.70;99.90;;;;;;4976067;28;20031;-49
2022/11/15 06:03:51;;;;;;;7.57;6.53;;;10.70;99.90;;;;;;4975384;28;20023;-47
2022/11/15 06:06:17;;;;;;;10.32;7.38;;;10.60;99.90;;;;;;4975726;28;20034;-46
2022/11/15 06:08:42;;;;;;;9.30;6.20;;;10.50;99.90;;;;;;4976081;28;20022;-49
2022/11/15 06:11:08;;;;;;;8.02;7.07;;;10.50;99.90;;;;;;4975968;28;20034;-48
2022/11/15 06:13:34;;;;;;;8.73;6.25;;;10.50;99.90;;;;;;4975298;28;20041;-50
2022/11/15 06:16:00;;;;;;;10.23;7.00;;;10.50;99.90;;;;;;4975905;28;20026;-49
2022/11/15 06:18:26;;;;;;;8.63;6.95;;;10.60;99.90;;;;;;4974079;28;20042;-46
2022/11/15 06:20:51;;;;;;;13.88;7.32;;;10.80;99.90;;;;;;4990641;28;20419;-45
2022/11/15 06:23:17;;;;;;;13.82;7.35;;;10.70;99.90;;;;;;4975134;28;20070;-46
2022/11/15 06:25:42;;;;;;;8.43;7.47;;;10.70;99.90;;;;;;4975930;28;20368;-47
2022/11/15 06:28:08;;;;;;;12.70;6.93;;;10.80;99.90;;;;;;4975467;28;20062;-45
2022/11/15 06:30:33;;;;;;;16.25;8.20;;;10.70;99.90;;;;;;4975488;28;20395;-49
2022/11/15 06:33:01;;;;;;;9.10;7.65;;;10.60;99.90;;;;;;4974902;28;20483;-46
2022/11/15 06:35:26;;;;;;;14.77;7.40;;;10.60;99.90;;;;;;4990362;28;20023;-46
2022/11/15 06:37:52;;;;;;;11.90;7.43;;;10.60;99.90;;;;;;4975424;28;20042;-49
2022/11/15 06:40:17;;;;;;;14.55;7.32;;;10.50;99.90;;;;;;4975397;28;20089;-44
2022/11/15 06:42:43;;;;;;;14.48;8.52;;;10.60;99.90;;;;;;4974939;28;20023;-45
2022/11/15 06:45:08;;;;;;;12.68;7.03;;;10.60;99.90;;;;;;4975867;28;20119;-47
2022/11/15 06:47:34;;;;;;;13.75;7.45;;;10.60;99.90;;;;;;4974633;28;20479;-47
2022/11/15 06:50:00;;;;;;;11.07;7.40;;;10.60;99.90;;;;;;4975200;28;20019;-50
2022/11/15 06:52:26;;;;;;;12.15;7.88;;;10.70;99.90;;;;;;4969376;28;20062;-46
2022/11/15 06:54:52;;;;;;;10.00;7.07;;;10.80;99.90;;;;;;4974584;28;20093;-48
2022/11/15 06:57:17;;;;;;;9.32;6.45;;;10.80;99.90;;;;;;4974919;28;20086;-50
2022/11/15 06:59:43;;;;;;;12.50;7.47;;;10.70;99.90;;;;;;4973033;28;20038;-45
2022/11/15 07:02:14;;;;;;;11.38;6.10;;;10.80;99.90;;;;;;4972400;28;20038;-47
2022/11/15 07:04:40;;;;;;;14.23;6.85;;;10.70;99.90;;;;;;4972264;28;20027;-44
2022/11/15 07:07:05;;;;;;;7.80;6.28;;;10.70;99.90;;;;;;4974841;28;20030;-48
2022/11/15 07:09:31;;;;;;;9.63;7.13;;;10.70;99.90;;;;;;4974560;28;20045;-47
2022/11/15 07:11:56;;;;;;;8.48;6.70;;;10.70;99.90;;;;;;4989242;28;20041;-50
2022/11/15 07:14:22;;;;;;;12.90;6.72;;;10.70;99.90;;;;;;4975026;28;20114;-48
2022/11/15 07:16:47;;;;;;;9.88;7.00;;;10.70;99.90;;;;;;4974496;28;20486;-47
2022/11/15 07:19:13;;;;;;;10.45;6.88;;;10.70;99.90;;;;;;4974580;28;20035;-46
2022/11/15 07:21:38;;;;;;;9.20;7.05;;;10.80;99.90;;;;;;4974641;28;20066;-48
2022/11/15 07:24:04;;;;;;;8.85;6.65;;;10.80;99.90;;;;;;4974060;28;20019;-48
2022/11/15 07:26:30;;;;;;;11.95;6.80;;;10.90;99.90;;;;;;4974492;28;20110;-45
2022/11/15 07:28:55;;;;;;;8.35;6.82;;;11.00;99.90;;;;;;4974660;28;20027;-51
2022/11/15 07:31:22;;;;;;;9.80;6.32;;;11.00;99.90;;;;;;4974430;28;20054;-51
2022/11/15 07:33:47;;;;;;;8.55;6.38;;;11.10;99.90;;;;;;4973458;28;20018;-48
2022/11/15 07:36:13;;;;;;;8.73;6.18;;;11.10;99.90;;;;;;4974664;28;20031;-47
2022/11/15 07:38:38;;;;;;;10.50;7.03;;;11.00;99.90;;;;;;4975507;28;20030;-51
2022/11/15 07:41:06;;;;;;;6.63;5.82;;;11.00;99.90;;;;;;4975051;28;20031;-51
2022/11/15 07:43:33;;;;;;;12.00;6.93;;;11.00;99.90;;;;;;4974310;28;20018;-52
2022/11/15 07:46:03;;;;;;;10.32;6.65;;;11.00;99.90;;;;;;4970361;28;20073;-50
2022/11/15 07:48:29;;;;;;;9.70;5.80;;;11.10;99.90;;;;;;4988959;28;20069;-49
2022/11/15 07:50:54;;;;;;;9.25;7.28;;;11.20;99.90;;;;;;4973963;28;20502;-46
2022/11/15 07:53:20;;;;;;;13.93;6.28;;;11.30;99.90;;;;;;4972751;28;20422;-48
2022/11/15 07:55:45;;;;;;;8.43;6.07;;;11.30;99.90;;;;;;4973558;28;20106;-49
2022/11/15 07:58:11;;;;;;;7.68;5.78;;;11.30;99.90;;;;;;4973574;28;20376;-45
2022/11/15 08:00:37;;;;;;;8.48;5.45;;;11.40;99.90;;;;;;4971492;28;20035;-47
2022/11/15 08:03:07;;;;;;;9.18;5.85;;;11.40;99.90;;;;;;4969250;28;20150;-47
2022/11/15 08:05:34;;;;;;;7.25;5.35;;;11.40;99.90;;;;;;4973939;28;20026;-50
2022/11/15 08:07:59;;;;;;;7.78;5.45;;;11.50;99.90;;;;;;4973866;28;20101;-50
2022/11/15 08:10:26;;;;;;;6.40;5.70;;;11.40;99.90;;;;;;4973502;28;20503;-48
2022/11/15 08:12:59;;;;;;;7.03;5.68;;;11.40;99.90;;;;;;4973165;28;20035;-44
2022/11/15 08:15:26;;;;;;;7.00;5.93;;;11.40;99.90;;;;;;4954773;28;20117;-44
2022/11/15 08:17:59;;;;;;;8.13;5.43;;;11.40;99.90;;;;;;4954585;28;20031;-52
2022/11/15 08:20:29;;;;;;;12.35;6.15;;;11.50;99.90;;;;;;4953109;28;20043;-53
2022/11/15 08:22:55;;;;;;;7.43;5.60;;;11.60;99.90;;;;;;4954260;29;20106;-44
2022/11/15 08:25:21;;;;;;;5.82;5.22;;;11.60;99.90;;;;;;4964588;28;20042;-44
2022/11/15 08:27:47;;;;;;;7.90;5.65;;;11.60;99.90;;;;;;4968990;28;20030;-43
2022/11/15 08:30:13;;;;;;;9.10;5.97;;;11.60;99.90;;;;;;4973544;28;20027;-44
2022/11/15 08:32:39;;;;;;;7.82;5.15;;;11.60;99.90;;;;;;4972853;28;20037;-44
2022/11/15 08:35:05;;;;;;;7.57;5.32;;;11.70;99.90;;;;;;4970471;28;20481;-43
2022/11/15 08:37:31;;;;;;;10.68;5.90;;;11.70;99.90;;;;;;4973451;28;20098;-44
2022/11/15 08:39:56;;;;;;;9.55;6.03;;;11.70;99.90;;;;;;4973172;28;20113;-45
2022/11/15 08:42:22;;;;;;;9.10;5.93;;;11.70;99.90;;;;;;4972599;28;20423;-49
2022/11/15 08:44:47;;;;;;;8.52;5.03;;;11.80;99.90;;;;;;4973305;28;20030;-44
2022/11/15 08:47:13;;;;;;;9.85;5.10;;;11.80;99.90;;;;;;4973142;28;20388;-44
2022/11/15 08:49:39;;;;;;;8.02;5.60;;;11.80;99.90;;;;;;4973087;28;20058;-43
2022/11/15 08:52:04;;;;;;;9.07;5.55;;;11.90;99.90;;;;;;4972401;28;20066;-47
2022/11/15 08:54:30;;;;;;;8.63;5.25;;;12.10;99.90;;;;;;4973142;28;20026;-44
2022/11/15 08:56:57;;;;;;;9.43;5.43;;;12.10;99.90;;;;;;4972873;28;20466;-45
2022/11/15 08:59:22;;;;;;;8.73;5.90;;;12.20;99.90;;;;;;4973031;28;20046;-43
2022/11/15 09:01:48;;;;;;;8.85;5.70;;;12.10;99.90;;;;;;4972846;28;20150;-44
2022/11/15 09:04:13;;;;;;;10.52;5.43;;;12.10;99.90;;;;;;4972609;28;20100;-44
2022/11/15 09:06:39;;;;;;;7.80;5.75;;;12.20;99.90;;;;;;4972826;28;20487;-44
2022/11/15 09:09:04;;;;;;;6.53;5.40;;;12.20;99.90;;;;;;4972961;28;20077;-43
2022/11/15 09:11:30;;;;;;;7.43;5.53;;;12.20;99.90;;;;;;4972456;28;20113;-47
2022/11/15 09:13:55;;;;;;;7.22;5.57;;;12.30;99.90;;;;;;4972474;28;20030;-45
2022/11/15 09:16:21;;;;;;;13.23;5.80;;;12.30;99.90;;;;;;4972732;28;20019;-47
2022/11/15 09:18:46;;;;;;;11.45;5.30;;;12.30;99.90;;;;;;4972608;28;20101;-45
2022/11/15 09:21:13;;;;;;;6.82;5.80;;;12.30;99.90;;;;;;4972595;28;20043;-43
2022/11/15 09:23:39;;;;;;;10.70;6.60;;;12.30;99.90;;;;;;4972084;28;20029;-44
2022/11/15 09:26:05;;;;;;;9.45;5.63;;;12.30;99.90;;;;;;4972535;28;20019;-48
2022/11/15 09:28:32;;;;;;;13.13;5.40;;;12.20;99.90;;;;;;4972641;28;20428;-41
2022/11/15 09:30:59;;;;;;;10.43;5.53;;;12.20;99.90;;;;;;4972744;28;20037;-42
2022/11/15 09:33:26;;;;;;;15.93;6.28;;;12.40;99.90;;;;;;4972186;28;20038;-44
2022/11/15 09:35:52;;;;;;;5.88;5.07;;;12.70;99.90;;;;;;4971920;28;20089;-43
2022/11/15 09:38:18;;;;;;;7.55;4.50;;;13.00;99.90;;;;;;4972753;28;20027;-43
2022/11/15 09:40:44;;;;;;;13.70;6.55;;;13.20;99.90;;;;;;4972341;28;20039;-43
2022/11/15 09:43:36;;;;;;;9.40;5.70;;;13.40;99.90;;;;;;4971274;28;20505;-47
2022/11/15 09:46:16;;;;;;;14.13;5.72;;;13.40;99.90;;;;;;4972233;28;20483;-45
2022/11/15 09:48:48;;;;;;;6.88;5.35;;;13.40;99.90;;;;;;4972304;28;20022;-45
2022/11/15 09:51:23;;;;;;;12.82;5.53;;;13.30;99.90;;;;;;4972398;28;20522;-44
2022/11/15 09:54:04;;;;;;;13.30;6.50;;;13.30;99.90;;;;;;4971931;28;20030;-48
2022/11/15 09:56:32;;;;;;;14.45;5.47;;;13.40;99.90;;;;;;4971760;28;20037;-47
2022/11/15 09:59:16;;;;;;;8.43;6.28;;;13.30;99.90;;;;;;4971512;28;20087;-44
2022/11/15 10:02:11;;;;;;;10.48;5.20;;;13.30;99.90;;;;;;4972309;28;20035;-48
2022/11/15 10:04:38;;;;;;;13.07;6.63;;;13.20;99.90;;;;;;4972283;28;20038;-45
2022/11/15 10:07:16;;;;;;;21.05;7.38;;;13.10;99.90;;;;;;4971486;28;20022;-47
2022/11/15 10:09:52;;;;;;;15.90;5.85;;;13.00;99.90;;;;;;4974633;28;20490;-51
2022/11/15 10:12:17;;;;;;;7.93;5.65;;;12.90;99.90;;;;;;4973964;28;20059;-45
2022/11/15 10:14:44;;;;;;;10.18;6.32;;;12.80;99.90;;;;;;4973837;28;20027;-46
2022/11/15 10:17:18;;;;;;;9.65;6.47;;;12.70;99.90;;;;;;4974138;28;20027;-49
2022/11/15 10:19:43;;;;;;;14.05;7.65;;;12.70;99.90;;;;;;4961815;28;20104;-52
2022/11/15 10:22:11;;;;;;;9.35;6.07;;;12.60;99.90;;;;;;4973739;28;20503;-49
2022/11/15 10:24:41;;;;;;;14.65;7.00;;;12.60;99.90;;;;;;4977086;28;20023;-53
2022/11/15 10:27:13;;;;;;;9.35;6.32;;;12.50;99.90;;;;;;4968406;28;20037;-52
2022/11/15 10:29:44;;;;;;;11.32;7.43;;;12.50;99.90;;;;;;4974818;28;20058;-47
2022/11/15 10:32:12;;;;;;;9.90;6.82;;;12.50;99.90;;;;;;4969299;28;20053;-54
2022/11/15 10:34:37;;;;;;;10.55;7.25;;;12.40;99.90;;;;;;4957681;28;20077;-47
2022/11/15 10:37:03;;;;;;;11.77;8.02;;;12.40;99.90;;;;;;4972252;28;20093;-49
2022/11/15 10:39:29;;;;;;;9.30;6.55;;;12.40;99.90;;;;;;4977845;28;20031;-47
2022/11/15 10:41:55;;;;;;;12.15;7.57;;;12.40;99.90;;;;;;4991805;28;20031;-46
2022/11/15 10:44:24;;;;;;;11.48;7.40;;;12.40;99.90;;;;;;4976484;28;20038;-42
2022/11/15 10:46:56;;;;;;;12.60;7.07;;;12.40;99.90;;;;;;4974830;28;20023;-44
2022/11/15 10:49:25;;;;;;;11.27;7.65;;;12.40;99.90;;;;;;4973697;28;20035;-43
2022/11/15 10:51:56;;;;;;;11.55;7.47;;;12.40;99.90;;;;;;4969638;28;20027;-45
2022/11/15 10:54:28;;;;;;;14.90;7.00;;;12.40;99.90;;;;;;4956386;28;20034;-49
2022/11/15 10:56:57;;;;;;;10.93;6.68;;;12.40;99.90;;;;;;4973225;28;20031;-45
2022/11/15 10:59:35;;;;;;;16.55;8.02;;;12.40;99.90;;;;;;4975743;28;20031;-49
2022/11/15 11:02:01;;;;;;;9.95;6.57;;;12.40;99.90;;;;;;4976847;28;20035;-48
2022/11/15 11:04:26;;;;;;;10.88;7.25;;;12.40;99.90;;;;;;4970546;28;20110;-48
2022/11/15 11:06:57;;;;;;;8.82;7.00;;;12.40;99.90;;;;;;4975456;28;20031;-47
2022/11/15 11:09:33;;;;;;;11.23;6.78;;;12.40;99.90;;;;;;4990024;28;20065;-47
2022/11/15 11:12:00;;;;;;;8.63;6.18;;;12.60;99.90;;;;;;4970508;28;20039;-47
2022/11/15 11:14:27;;;;;;;10.75;7.18;;;12.60;99.90;;;;;;4968280;28;20050;-47
2022/11/15 11:17:04;;;;;;;12.07;6.35;;;12.70;99.90;;;;;;4972732;28;20038;-47
2022/11/15 11:19:48;;;;;;;9.07;5.78;;;12.70;99.90;;;;;;4974518;28;20039;-45
2022/11/15 11:22:32;;;;;;;9.98;6.65;;;12.80;99.90;;;;;;4974338;28;20050;-46
2022/11/15 11:25:19;;;;;;;10.85;6.15;;;12.90;99.90;;;;;;4969749;28;20061;-49
2022/11/15 11:28:13;;;;;;;11.40;6.75;;;12.90;99.90;;;;;;4965036;28;20026;-46
2022/11/15 11:30:48;;;;;;;9.13;5.70;;;13.00;99.90;;;;;;4975099;28;20034;-49
2022/11/15 11:33:17;;;;;;;10.05;6.25;;;13.00;99.90;;;;;;4974254;28;20034;-50
2022/11/15 11:36:18;;;;;;;10.60;6.72;;;13.10;99.90;;;;;;4972416;28;20039;-46
2022/11/15 11:38:52;;;;;;;15.88;6.95;;;13.10;99.90;;;;;;4959619;28;20512;-49
2022/11/15 11:41:41;;;;;;;9.90;7.00;;;13.10;99.90;;;;;;4967361;28;20058;-45
2022/11/15 11:44:33;;;;;;;8.85;6.57;;;13.20;99.90;;;;;;4973629;28;20061;-45
2022/11/15 11:47:07;;;;;;;8.43;6.68;;;13.20;99.90;;;;;;4974823;28;20029;-51
2022/11/15 11:49:55;;;;;;;13.68;6.07;;;13.10;99.90;;;;;;4980221;28;20406;-50
2022/11/15 11:52:37;;;;;;;11.65;5.82;;;13.10;99.90;;;;;;4975755;28;20384;-48
2022/11/15 11:55:31;;;;;;;12.85;6.93;;;13.10;99.90;;;;;;4979402;28;20038;-48
2022/11/15 11:58:21;;;;;;;11.10;7.13;;;13.20;99.90;;;;;;4968816;28;20031;-45
2022/11/15 12:00:52;;;;;;;13.55;7.00;;;13.30;99.90;;;;;;4986045;28;20500;-44
2022/11/15 12:03:43;;;;;;;8.57;6.45;;;13.30;99.90;;;;;;4974073;28;20487;-45
2022/11/15 12:06:15;;;;;;;11.60;6.70;;;13.40;99.90;;;;;;4974190;28;20102;-46
2022/11/15 12:08:51;;;;;;;6.63;5.47;;;13.40;99.90;;;;;;4974284;28;20042;-45
2022/11/15 12:11:22;;;;;;;7.95;6.22;;;13.50;99.90;;;;;;4974104;28;20043;-45
2022/11/15 12:13:53;;;;;;;8.82;5.70;;;13.50;99.90;;;;;;4973248;28;20038;-45
2022/11/15 12:16:28;;;;;;;10.60;5.60;;;13.50;99.90;;;;;;4974054;28;20039;-44
2022/11/15 12:18:56;;;;;;;6.95;5.30;;;13.50;99.90;;;;;;4974400;28;20031;-45
2022/11/15 12:21:42;;;;;;;9.52;5.38;;;13.60;99.90;;;;;;4972701;28;20125;-48
2022/11/15 12:24:28;;;;;;;14.63;5.70;;;13.60;99.90;;;;;;4973611;28;20023;-45
2022/11/15 12:26:56;;;;;;;8.10;5.82;;;13.60;99.90;;;;;;4974449;28;20023;-45
2022/11/15 12:29:41;;;;;;;8.20;5.32;;;13.70;99.90;;;;;;4974072;28;20050;-46
2022/11/15 12:32:31;;;;;;;9.30;5.13;;;13.70;99.90;;;;;;4973923;28;20039;-44
2022/11/15 12:34:57;;;;;;;7.63;5.30;;;13.70;99.90;;;;;;4975194;28;20438;-45
2022/11/15 12:37:33;;;;;;;11.10;5.38;;;13.70;99.90;;;;;;4975019;28;20035;-51
2022/11/15 12:40:18;;;;;;;8.35;4.88;;;13.70;99.90;;;;;;4974176;28;20118;-50
2022/11/15 12:42:57;;;;;;;9.38;5.25;;;13.70;99.90;;;;;;4973967;28;20018;-46
2022/11/15 12:45:31;;;;;;;8.13;5.35;;;13.70;99.90;;;;;;4973504;28;20101;-48
2022/11/15 12:48:16;;;;;;;9.98;5.53;;;13.70;99.90;;;;;;4973901;28;20026;-48
2022/11/15 12:50:53;;;;;;;7.72;5.22;;;13.60;99.90;;;;;;4973474;28;20033;-45
2022/11/15 12:53:31;;;;;;;7.25;4.90;;;13.60;99.90;;;;;;4973045;28;20026;-47
2022/11/15 12:56:03;;;;;;;11.07;5.07;;;13.60;99.90;;;;;;4973255;28;20023;-50
2022/11/15 12:58:40;;;;;;;9.77;4.68;;;13.70;99.90;;;;;;4973147;28;20074;-46
2022/11/15 13:01:07;;;;;;;10.43;4.72;;;13.70;99.90;;;;;;4973696;28;20027;-46
2022/11/15 13:03:34;;;;;;;6.00;4.68;;;13.70;99.90;;;;;;4973403;28;20103;-51
2022/11/15 13:06:05;;;;;;;9.63;5.38;;;13.70;99.90;;;;;;4976434;28;20037;-46
2022/11/15 13:08:43;;;;;;;6.28;4.75;;;13.70;99.90;;;;;;4974632;28;20035;-46
2022/11/15 13:11:49;;;;;;;6.80;3.90;;;13.70;99.90;;;;;;4973312;28;20031;-47